Terminal Aerodrome Forecast
Issued by NWS

Home | Current Version | Previous Version | Text Only | Print | Product List | Glossary On
Versions: 1 2 3 4 5 6 7 8 9 10 11 12 13 14 15 16 17 18 19
000
FTAK31 PAJN 021749
TAFASI
TAF
PASI 021749Z 0218/0318 20008KT 5SM -SHRA BR FEW015 BKN025 OVC035
      TEMPO 0218/0221 19005KT 2SM BR FEW010 OVC020
     FM022100 19005KT P6SM VCSH SCT025 BKN035 OVC060
     FM030300 VRB03KT P6SM BKN060
     FM030900 30005KT P6SM FEW005 BKN060=

USA.gov is the U.S. government's official web portal to all federal, state and local government web resources and services.